Aviation Digital Data Service (ADDS)

Output produced by METARs form (0306 UTC 20 March 2019)
found at http://www.aviationweather.gov/metar/data/
 
Forecast for: VTBD (BANGKOK/DON MUAN, TH)
Text: TAF VTBD 192300Z 2000/2106 19010KT 9000 FEW020
Forecast period: 0000 to 2000 UTC 20 March 2019
Forecast type: FROM: standard forecast or significant change
Winds: from the S (190 degrees) at 12 MPH (10 knots; 5.1 m/s)
Visibility: 6 miles (9 km)
Ceiling: at least 12,000 feet AGL
Clouds: few clouds at 2000 feet AGL
Weather: no significant weather forecast for this period
Text: BECMG 2020/2022 12005KT
Forecast period: 2000 UTC 20 March 2019 to 0100 UTC 21 March 2019
Forecast type: BECOMING: Conditions expected to become as follows by 2200 UTC 20 March 2019
Winds: from the ESE (120 degrees) at 6 MPH (5 knots; 2.6 m/s)
Visibility: 6 miles (9 km)
Ceiling: at least 12,000 feet AGL
Clouds: few clouds at 2000 feet AGL
Weather: no significant weather forecast for this period
Text: BECMG 2101/2103 19010KT
Forecast period: 0100 to 0600 UTC 21 March 2019
Forecast type: BECOMING: Conditions expected to become as follows by 0300 UTC 21 March 2019
Winds: from the S (190 degrees) at 12 MPH (10 knots; 5.1 m/s)
Visibility: 6 miles (9 km)
Ceiling: at least 12,000 feet AGL
Clouds: few clouds at 2000 feet AGL
Weather: no significant weather forecast for this period